Tropical Cyclones
[Index]
Main Index Home Page Stock Weather Photos Extreme Storms Discussion Storm News and Storm Chasing Reports Tropical Cyclones / Hurricanes / Typhoons Weather Data and Links Wild Fires / Bushfires Weather Observation Techniques Weather Picture Catalogue Tornado Pictures and Reports Stock Video Footage and DVDs for sale
Season 2015-2016 Tropical Cyclone BOHALE Track Map
Season 2015-2016 Summaries: [BoM-AU] [JTWC-AU] [JTWC-SIO] [JTWC-SPAC] [JTWC-SH]
<<- Previous TC | JTWC 2015-2016 Season | Next TC ->>

click for intensity scale information  Lat/long Grid: Show Hide

 Date Labels: Show Hide

Joint Typhoon Warning Centre Cyclone Data

Name: BOHALE

08 Dec 2015 12:00 UTC to 17 Dec 2015 00:00 UTC

    date/time    lat    long     hPa   cat  kts
2015-12-08 12   10.6    73.5    1004         25          
2015-12-08 18   11.1    72.9    1004         25          
2015-12-09 00   11.6    72.5    1002         25          
2015-12-09 06   12.1    72.3    1004         25          
2015-12-09 12   12.7    72.2    1004         25          
2015-12-09 18   13.3    71.9    1001         25          
2015-12-10 00   13.9    71.3     999         30          
2015-12-10 06   14.3    70.5     996         35          
2015-12-10 12   14.8    70.1     996         35          
2015-12-10 18   15.4    69.8     996         35          
2015-12-11 00   15.9    69.5     996         35          
2015-12-11 06   16.5    69.0     996         35          
2015-12-11 12   16.9    68.5     996         35          
2015-12-11 18   17.3    68.1     996         35          
2015-12-12 00   17.9    67.9     996         35          
2015-12-12 03   18.4    68.0     996         35          
2015-12-12 06   18.9    68.2     996         35          
2015-12-12 12   19.8    67.8     996         35          
2015-12-12 18   20.5    67.5     996         35          
2015-12-13 00   21.3    67.1    1000         30          
2015-12-13 06   22.3    66.7    1000         30          
2015-12-13 12   23.4    66.3    1000         30          
2015-12-13 18   24.1    66.0    1000         30          
2015-12-14 00   24.9    65.9    1000         30          
2015-12-14 06   25.8    65.9    1000         30          
2015-12-14 12   26.4    65.8    1004         25          
2015-12-14 18   26.7    65.5    1004         25          
2015-12-15 00   26.9    65.4    1007         20          
2015-12-15 06   27.3    65.3    1007         20          
2015-12-15 12   27.7    65.3    1007         20          
2015-12-15 18   28.1    65.4    1007         20          
2015-12-16 00   28.8    65.7    1007         20          
2015-12-16 06   29.6    66.5    1007         20          
2015-12-16 12   30.4    67.9    1007         20          
2015-12-16 18   31.1    69.6    1007         20          
2015-12-17 00   31.6    71.6    1007         20          
Winds are 1-min average.

Tropical cyclone tracks developed by Michael Bath using data from the Joint Typhoon Warning Centre Best Tracks and Google Maps.


[Australian Severe Weather index] [Copyright Notice] [Email Contacts] [Search This Site] [Privacy Policy]
Document: tropical_cyclone_bohale.htm Updated: 28 June 2017